Time;durP1;ratioP1;P1;durP2;ratioP2;P2;SDS_P1;SDS_P2;PMS_P1;PMS_P2;Temp;Humidity;BMP_temperature;BMP_pressure;BME280_temperature;BME280_humidity;BME280_pressure;Samples;Min_cycle;Max_cycle;Signal;HPM_P1;HPM_P2
2022/04/27 00:00:24;;;;;;;8.00;6.90;;;;;;;6.92;75.85;100947.16;4981405;28;20456;-78
2022/04/27 00:02:51;;;;;;;10.80;6.87;;;;;;;6.83;76.03;100945.13;4981982;28;20484;-78
2022/04/27 00:05:18;;;;;;;11.67;9.87;;;;;;;6.73;76.36;100953.66;4982373;28;20463;-78
2022/04/27 00:07:45;;;;;;;10.77;7.40;;;;;;;6.74;76.47;100950.06;4982934;28;20508;-78
2022/04/27 00:10:11;;;;;;;11.67;7.53;;;;;;;6.71;76.65;100944.94;4981659;28;20460;-78
2022/04/27 00:12:38;;;;;;;11.83;8.10;;;;;;;6.76;76.82;100960.59;4981794;28;20875;-79
2022/04/27 00:15:06;;;;;;;9.43;8.13;;;;;;;6.76;76.32;100949.97;4983019;28;20476;-78
2022/04/27 00:17:34;;;;;;;9.73;7.97;;;;;;;6.77;76.17;100939.25;4971968;28;20468;-79
2022/04/27 00:20:01;;;;;;;15.17;8.00;;;;;;;6.75;76.29;100946.47;4995729;28;20459;-78
2022/04/27 00:22:27;;;;;;;10.73;7.80;;;;;;;6.73;76.09;100951.00;5001505;28;20506;-78
2022/04/27 00:24:56;;;;;;;11.00;7.20;;;;;;;6.69;76.38;100948.66;4987273;28;20488;-78
2022/04/27 00:27:23;;;;;;;9.80;7.93;;;;;;;6.70;76.56;100940.59;4981123;28;20494;-79
2022/04/27 00:29:51;;;;;;;12.90;7.87;;;;;;;6.70;76.41;100943.25;4982720;28;20476;-79
2022/04/27 00:32:17;;;;;;;11.60;7.63;;;;;;;6.71;76.36;100947.59;4981686;28;20488;-79
2022/04/27 00:34:45;;;;;;;9.40;7.57;;;;;;;6.71;76.40;100944.09;4982759;28;21029;-79
2022/04/27 00:37:12;;;;;;;12.37;7.83;;;;;;;6.69;76.12;100944.19;4981333;28;20512;-79
2022/04/27 00:39:39;;;;;;;10.20;8.37;;;;;;;6.69;76.23;100946.84;4982727;28;20441;-79
2022/04/27 00:42:14;;;;;;;12.33;7.63;;;;;;;6.69;76.11;100959.28;4981731;28;20488;-79
2022/04/27 00:44:43;;;;;;;13.90;7.93;;;;;;;6.65;76.36;100963.06;4982070;28;20491;-78
2022/04/27 00:47:10;;;;;;;9.00;6.77;;;;;;;6.58;76.27;100958.16;4981883;28;20511;-78
2022/04/27 00:49:37;;;;;;;10.70;8.03;;;;;;;6.54;76.49;100955.78;4982696;28;20480;-78
2022/04/27 00:52:06;;;;;;;11.23;8.13;;;;;;;6.51;76.63;100959.50;4981832;28;20518;-79
2022/04/27 00:54:32;;;;;;;14.67;9.50;;;;;;;6.51;76.71;100953.31;4982761;28;20452;-78
2022/04/27 00:56:59;;;;;;;9.87;7.90;;;;;;;6.48;76.71;100961.50;4981171;28;20547;-79
2022/04/27 00:59:26;;;;;;;8.53;7.50;;;;;;;6.41;76.90;100959.22;4981958;28;20471;-80
2022/04/27 01:01:52;;;;;;;16.23;8.60;;;;;;;6.32;77.02;100964.25;4981185;28;20513;-79
2022/04/27 01:04:19;;;;;;;12.47;8.50;;;;;;;6.21;77.26;100970.22;4982550;28;20794;-79
2022/04/27 01:06:46;;;;;;;14.10;9.13;;;;;;;6.14;77.85;100975.06;4980972;28;21079;-80
2022/04/27 01:09:14;;;;;;;13.53;8.03;;;;;;;6.07;78.24;100976.38;4982380;28;20921;-79
2022/04/27 01:11:41;;;;;;;11.70;8.00;;;;;;;5.98;78.50;100982.28;4980941;28;20476;-79
2022/04/27 01:14:07;;;;;;;14.03;9.20;;;;;;;6.00;78.65;100970.59;4981853;28;20476;-79
2022/04/27 01:16:34;;;;;;;12.63;9.03;;;;;;;6.11;78.76;100971.75;4981537;28;20515;-78
2022/04/27 01:19:01;;;;;;;12.07;9.43;;;;;;;5.99;79.12;100974.22;4982044;28;20445;-79
2022/04/27 01:21:29;;;;;;;12.60;9.07;;;;;;;6.02;79.00;100976.69;4981202;28;20472;-79
2022/04/27 01:23:56;;;;;;;10.43;8.87;;;;;;;6.00;79.06;100983.03;4983278;28;20480;-79
2022/04/27 01:26:22;;;;;;;14.40;9.00;;;;;;;6.02;78.76;100983.78;4984800;28;20555;-80
2022/04/27 01:28:49;;;;;;;13.27;9.00;;;;;;;5.96;78.85;100982.34;4985648;28;20553;-79
2022/04/27 01:31:16;;;;;;;10.37;8.77;;;;;;;5.89;78.81;100981.00;4985680;28;20504;-80
2022/04/27 01:33:42;;;;;;;13.93;9.63;;;;;;;5.85;79.10;100984.78;4986473;28;20527;-79
2022/04/27 01:36:10;;;;;;;13.07;9.30;;;;;;;5.79;79.66;100977.19;4985064;28;20552;-80
2022/04/27 01:38:39;;;;;;;12.90;9.00;;;;;;;5.84;79.81;100983.91;4986355;28;20524;-80
2022/04/27 01:41:06;;;;;;;15.87;10.20;;;;;;;5.84;79.66;100988.38;4984890;28;20563;-78
2022/04/27 01:43:33;;;;;;;14.20;9.37;;;;;;;5.81;79.69;100988.56;4985767;28;20496;-80
2022/04/27 01:46:00;;;;;;;11.90;9.40;;;;;;;5.81;79.39;100989.41;4985362;28;20472;-78
2022/04/27 01:48:27;;;;;;;11.20;10.00;;;;;;;5.79;79.29;100990.44;4985125;28;20476;-77
2022/04/27 01:50:54;;;;;;;12.90;9.67;;;;;;;5.74;79.45;100990.72;4984642;28;20472;-78
2022/04/27 01:56:06;;;;;;;12.87;10.63;;;;;;;5.67;79.99;100994.69;4984451;28;20479;-79
2022/04/27 01:58:33;;;;;;;14.53;10.80;;;;;;;5.64;80.19;100994.84;4986086;28;20483;-79
2022/04/27 02:01:00;;;;;;;13.70;10.17;;;;;;;5.55;80.27;101000.72;4984816;28;20500;-79
2022/04/27 02:03:27;;;;;;;15.60;10.60;;;;;;;5.44;80.84;100999.53;4985551;28;20523;-79
2022/04/27 02:05:54;;;;;;;15.20;10.53;;;;;;;5.50;81.00;100997.47;4984676;28;20555;-80
2022/04/27 02:08:20;;;;;;;12.03;10.13;;;;;;;5.40;81.49;101005.97;4985947;28;20464;-80
2022/04/27 02:10:47;;;;;;;14.07;9.70;;;;;;;5.54;81.08;101001.63;4984259;28;20507;-80
2022/04/27 02:13:15;;;;;;;15.60;10.53;;;;;;;5.56;81.14;101005.09;4985500;28;20563;-80
2022/04/27 02:15:42;;;;;;;10.47;9.23;;;;;;;5.68;80.65;100995.53;4984342;28;20551;-79
2022/04/27 02:18:09;;;;;;;18.07;11.13;;;;;;;5.66;80.26;101007.09;4985500;28;20479;-79
2022/04/27 02:20:35;;;;;;;13.53;9.80;;;;;;;5.52;80.94;101003.53;4984222;28;20471;-78
2022/04/27 02:23:02;;;;;;;11.70;9.63;;;;;;;5.55;80.96;101006.84;4985231;28;20452;-78
2022/04/27 02:25:29;;;;;;;12.50;10.07;;;;;;;5.45;81.01;101009.22;4983877;28;20885;-77
2022/04/27 02:27:55;;;;;;;13.80;10.30;;;;;;;5.33;81.68;101003.75;4984954;28;20541;-77
2022/04/27 02:30:23;;;;;;;12.90;10.50;;;;;;;5.33;81.70;101006.41;4984899;28;20535;-77
2022/04/27 02:32:50;;;;;;;12.13;10.13;;;;;;;5.28;82.03;101006.69;4984817;28;20487;-78
2022/04/27 02:35:17;;;;;;;14.50;11.20;;;;;;;5.30;81.82;101006.59;4983290;28;20456;-78
2022/04/27 02:37:43;;;;;;;12.93;10.10;;;;;;;5.30;82.00;101019.84;4984901;28;20508;-77
2022/04/27 02:40:10;;;;;;;17.63;10.57;;;;;;;5.23;81.80;101014.88;4984202;28;20491;-78
2022/04/27 02:42:37;;;;;;;17.07;10.40;;;;;;;5.23;82.01;101025.50;4983953;28;20492;-78
2022/04/27 02:45:04;;;;;;;16.43;10.97;;;;;;;5.27;82.01;101027.00;4984223;28;20511;-78
2022/04/27 02:47:32;;;;;;;17.03;12.03;;;;;;;5.21;81.55;101032.69;4984187;28;20496;-77
2022/04/27 02:52:44;;;;;;;13.13;9.50;;;;;;;5.16;81.89;101028.59;4984463;28;20500;-79
2022/04/27 02:55:10;;;;;;;15.73;10.57;;;;;;;5.07;82.37;101040.56;4983841;28;20493;-80
2022/04/27 02:57:38;;;;;;;13.33;9.90;;;;;;;5.05;82.81;101031.81;4983986;28;20459;-80
2022/04/27 03:00:05;;;;;;;16.00;11.53;;;;;;;5.10;82.55;101035.06;4984079;28;20449;-80
2022/04/27 03:02:33;;;;;;;13.27;10.30;;;;;;;5.15;82.69;101034.81;4984203;28;20460;-79
2022/04/27 03:05:00;;;;;;;18.67;11.40;;;;;;;5.17;82.89;101041.72;4984147;28;21045;-79
2022/04/27 03:07:28;;;;;;;17.10;11.33;;;;;;;5.15;82.64;101034.81;4983556;28;20480;-80
2022/04/27 03:09:54;;;;;;;16.27;10.30;;;;;;;5.16;82.07;101034.75;4983989;28;20472;-80
2022/04/27 03:12:21;;;;;;;18.20;12.33;;;;;;;5.12;81.96;101038.50;4983055;28;20571;-81
2022/04/27 03:14:48;;;;;;;15.83;11.70;;;;;;;5.09;82.09;101038.69;4984040;28;20436;-81
2022/04/27 03:17:14;;;;;;;17.33;11.00;;;;;;;5.03;82.13;101034.56;4983400;28;20512;-81
2022/04/27 03:19:42;;;;;;;16.40;10.70;;;;;;;5.02;82.22;101042.63;4975735;28;20484;-79
2022/04/27 03:22:09;;;;;;;16.90;10.93;;;;;;;4.99;82.28;101042.78;4983181;28;20579;-82
2022/04/27 03:24:37;;;;;;;13.10;11.23;;;;;;;4.94;82.34;101052.78;4984460;28;20928;-79
2022/04/27 03:27:05;;;;;;;15.33;11.50;;;;;;;4.85;83.17;101044.38;4983022;28;20567;-78
2022/04/27 03:29:31;;;;;;;17.30;10.80;;;;;;;4.77;83.32;101043.94;4984386;28;20543;-78
2022/04/27 03:31:58;;;;;;;16.50;11.60;;;;;;;4.73;83.92;101050.34;4983622;28;20483;-79
2022/04/27 03:34:25;;;;;;;15.70;11.70;;;;;;;4.72;84.07;101054.81;4983451;28;20471;-80
2022/04/27 03:36:53;;;;;;;13.67;10.83;;;;;;;4.80;84.40;101058.84;4983120;28;20476;-80
2022/04/27 03:39:20;;;;;;;12.07;10.53;;;;;;;4.78;84.42;101061.56;4983311;28;20468;-81
2022/04/27 03:41:47;;;;;;;15.37;11.87;;;;;;;4.82;84.25;101065.75;4981970;28;20911;-81
2022/04/27 03:44:13;;;;;;;17.00;11.10;;;;;;;4.93;83.88;101066.94;4982515;28;20495;-78
2022/04/27 03:46:40;;;;;;;15.90;12.13;;;;;;;4.96;83.67;101070.28;4982790;28;20476;-79
2022/04/27 03:49:06;;;;;;;20.30;12.20;;;;;;;4.99;83.57;101070.13;4983316;28;20472;-79
2022/04/27 03:51:33;;;;;;;19.87;12.90;;;;;;;4.99;83.54;101069.28;4983489;28;20547;-78
2022/04/27 03:54:01;;;;;;;17.67;12.27;;;;;;;4.99;83.49;101069.28;4983802;28;20460;-77
2022/04/27 03:56:28;;;;;;;16.37;11.57;;;;;;;4.99;83.57;101077.22;4981461;28;20571;-80
2022/04/27 03:58:55;;;;;;;19.67;13.37;;;;;;;5.04;83.32;101077.84;4983497;28;20444;-80
2022/04/27 04:01:22;;;;;;;13.90;12.10;;;;;;;5.06;83.54;101070.66;4982910;28;20491;-79
2022/04/27 04:03:49;;;;;;;16.27;12.07;;;;;;;4.98;83.49;101072.84;4983493;28;20601;-79
2022/04/27 04:06:19;;;;;;;25.30;13.37;;;;;;;5.13;83.64;101079.13;4982515;28;20518;-79
2022/04/27 04:08:45;;;;;;;15.23;12.80;;;;;;;5.12;83.34;101083.56;4975663;28;20472;-79
2022/04/27 04:11:13;;;;;;;17.03;12.50;;;;;;;5.23;82.95;101091.78;4973926;28;21052;-79
2022/04/27 04:13:40;;;;;;;20.40;13.33;;;;;;;5.34;82.99;101090.31;4982558;28;20456;-78
2022/04/27 04:16:07;;;;;;;19.37;12.60;;;;;;;5.31;82.91;101093.13;4982527;28;20513;-79
2022/04/27 04:18:33;;;;;;;18.23;14.00;;;;;;;5.29;82.73;101090.56;4983323;28;20468;-78
2022/04/27 04:21:00;;;;;;;19.90;13.00;;;;;;;5.36;82.91;101096.38;4983105;28;20492;-80
2022/04/27 04:23:27;;;;;;;19.23;13.30;;;;;;;5.36;82.53;101097.22;4989604;28;20535;-80
2022/04/27 04:28:39;;;;;;;16.73;13.07;;;;;;;5.45;81.94;101110.00;4983138;28;20563;-78
2022/04/27 04:31:06;;;;;;;17.73;13.23;;;;;;;5.51;81.87;101111.44;4982244;28;20491;-80
2022/04/27 04:33:32;;;;;;;16.57;13.10;;;;;;;5.52;81.92;101109.63;4982348;28;21016;-80
2022/04/27 04:35:59;;;;;;;18.50;13.30;;;;;;;5.56;81.81;101112.03;4962417;28;20504;-81
2022/04/27 04:38:26;;;;;;;18.63;12.27;;;;;;;5.58;81.69;101117.25;4977293;28;20476;-80
2022/04/27 04:40:53;;;;;;;17.63;13.70;;;;;;;5.59;81.67;101113.63;4980293;28;20472;-79
2022/04/27 04:43:20;;;;;;;19.53;14.17;;;;;;;5.63;81.33;101126.66;4982040;28;20541;-79
2022/04/27 04:45:48;;;;;;;18.33;13.50;;;;;;;5.51;81.09;101121.19;4981312;28;20539;-81
2022/04/27 04:48:15;;;;;;;17.23;13.40;;;;;;;5.56;81.00;101124.44;4982356;28;20782;-81
2022/04/27 04:50:42;;;;;;;18.90;13.70;;;;;;;5.52;81.17;101128.19;4980646;28;20497;-76
2022/04/27 04:53:08;;;;;;;18.70;14.73;;;;;;;5.69;80.84;101141.34;4981876;28;20457;-81
2022/04/27 04:55:35;;;;;;;18.97;13.33;;;;;;;5.82;80.83;101134.41;4981179;28;20475;-80
2022/04/27 04:58:02;;;;;;;17.40;13.70;;;;;;;5.88;80.25;101135.00;4981530;28;20452;-80
2022/04/27 05:00:29;;;;;;;20.70;14.03;;;;;;;5.77;80.12;101133.81;4981231;28;20531;-80
2022/04/27 05:02:58;;;;;;;18.17;15.07;;;;;;;5.60;80.74;101144.53;4987107;28;20566;-80
2022/04/27 05:05:24;;;;;;;17.53;13.60;;;;;;;5.55;81.06;101142.13;5000232;28;20444;-81
2022/04/27 05:07:51;;;;;;;23.40;14.37;;;;;;;5.75;81.01;101150.78;4980999;28;20463;-80
2022/04/27 05:10:18;;;;;;;18.83;13.87;;;;;;;5.87;80.30;101154.50;4982145;28;20479;-80
2022/04/27 05:12:44;;;;;;;18.93;14.47;;;;;;;6.10;79.68;101153.22;4980978;28;20460;-80
2022/04/27 05:15:12;;;;;;;18.47;14.33;;;;;;;6.28;79.00;101160.09;4981912;28;20440;-81
2022/04/27 05:17:39;;;;;;;15.73;14.03;;;;;;;6.39;78.51;101170.13;4980587;28;20456;-78
2022/04/27 05:20:08;;;;;;;20.20;13.30;;;;;;;6.53;77.99;101169.28;4981271;28;20480;-72
2022/04/27 05:22:38;;;;;;;23.13;13.80;;;;;;;6.56;77.51;101166.44;4981474;28;20464;-73
2022/04/27 05:25:06;;;;;;;22.00;14.00;;;;;;;6.69;77.02;101170.06;4981840;28;20455;-78
2022/04/27 05:27:32;;;;;;;18.00;14.43;;;;;;;6.79;76.72;101165.06;4980826;28;20496;-80
2022/04/27 05:32:58;;;;;;;16.73;13.40;;;;;;;7.01;75.70;101177.84;4921463;29;20478;-79
2022/04/27 05:35:27;;;;;;;17.20;12.90;;;;;;;7.14;75.26;101180.63;4921017;29;20459;-79
2022/04/27 05:37:53;;;;;;;16.83;12.83;;;;;;;7.23;74.86;101187.19;4948382;28;20449;-80
2022/04/27 05:40:20;;;;;;;17.37;14.20;;;;;;;7.33;74.61;101197.16;4981714;28;20539;-79
2022/04/27 05:42:48;;;;;;;17.57;14.40;;;;;;;7.50;74.42;101189.91;4981465;28;20491;-79
2022/04/27 05:45:15;;;;;;;16.20;12.57;;;;;;;7.57;73.74;101193.00;4981071;28;20548;-79
2022/04/27 05:47:42;;;;;;;18.00;12.10;;;;;;;7.54;73.34;101191.41;4981886;28;20432;-79
2022/04/27 05:50:10;;;;;;;16.87;13.30;;;;;;;7.65;72.97;101201.38;4981845;28;20519;-78
2022/04/27 05:52:49;;;;;;;18.80;13.53;;;;;;;7.80;72.53;101197.72;4982395;28;20452;-79
2022/04/27 05:55:15;;;;;;;14.10;11.50;;;;;;;7.86;71.80;101188.47;4981164;28;20520;-79
2022/04/27 05:57:42;;;;;;;17.70;12.90;;;;;;;8.29;70.83;101196.31;4981186;28;20516;-79
2022/04/27 06:00:10;;;;;;;14.20;12.60;;;;;;;8.71;69.70;101191.72;4981221;28;20461;-80
2022/04/27 06:02:38;;;;;;;18.10;12.20;;;;;;;9.68;67.67;101200.06;4985668;28;21013;-79
2022/04/27 06:05:05;;;;;;;19.10;12.47;;;;;;;10.96;62.46;101210.06;4993932;28;20670;-80
2022/04/27 06:07:35;;;;;;;13.50;11.80;;;;;;;11.69;59.47;101208.72;4999570;28;20482;-79
2022/04/27 06:10:04;;;;;;;14.77;11.00;;;;;;;12.58;56.50;101210.38;5001830;28;20511;-79
2022/04/27 06:12:35;;;;;;;15.23;11.17;;;;;;;13.71;52.55;101205.06;5002448;28;20471;-79
2022/04/27 06:15:02;;;;;;;10.97;9.87;;;;;;;13.95;51.51;101217.25;5000719;28;20961;-80
2022/04/27 06:17:29;;;;;;;13.50;10.20;;;;;;;14.87;48.21;101218.69;4991995;28;20476;-78
2022/04/27 06:19:56;;;;;;;10.53;9.43;;;;;;;14.63;47.87;101211.09;4990006;28;20527;-77
2022/04/27 06:22:23;;;;;;;10.30;9.30;;;;;;;14.83;47.95;101220.00;4991186;28;20543;-80
2022/04/27 06:24:49;;;;;;;14.67;10.00;;;;;;;15.37;45.86;101217.56;4998398;28;20497;-79
2022/04/27 06:27:17;;;;;;;9.60;8.77;;;;;;;15.93;45.48;101219.25;4996509;28;20471;-80
2022/04/27 06:29:44;;;;;;;10.40;9.40;;;;;;;16.39;44.21;101216.53;4996675;28;20509;-81
2022/04/27 06:32:11;;;;;;;11.30;8.80;;;;;;;16.31;44.03;101219.16;4994060;28;20480;-81
2022/04/27 06:34:38;;;;;;;10.60;8.60;;;;;;;17.76;40.96;101221.28;4997324;28;20452;-82
2022/04/27 06:37:05;;;;;;;10.13;7.87;;;;;;;18.00;40.26;101223.25;4996902;28;20976;-81
2022/04/27 06:39:31;;;;;;;9.17;8.27;;;;;;;15.59;43.85;101221.72;4997825;28;20457;-79
2022/04/27 06:41:58;;;;;;;10.43;8.53;;;;;;;16.80;42.64;101210.59;4966763;28;20480;-80
2022/04/27 06:44:26;;;;;;;9.53;7.70;;;;;;;16.85;40.82;101216.41;4998603;28;20483;-80
2022/04/27 06:46:53;;;;;;;9.17;7.50;;;;;;;17.06;40.42;101216.03;4988563;28;20482;-80
2022/04/27 06:49:19;;;;;;;9.40;7.40;;;;;;;18.49;38.85;101218.91;5002968;28;20496;-81
2022/04/27 06:51:46;;;;;;;11.53;7.47;;;;;;;18.37;37.87;101215.69;5002966;28;20479;-80
2022/04/27 06:54:13;;;;;;;8.57;6.70;;;;;;;19.06;37.30;101226.16;5003405;28;21089;-80
2022/04/27 06:56:39;;;;;;;10.20;6.70;;;;;;;16.87;41.82;101225.19;5001611;28;20614;-80
2022/04/27 06:59:06;;;;;;;9.70;7.03;;;;;;;14.96;44.38;101231.28;5003420;28;20531;-80
2022/04/27 07:01:34;;;;;;;12.37;7.17;;;;;;;16.28;43.70;101217.59;5002498;28;20940;-79
2022/04/27 07:04:07;;;;;;;11.90;6.67;;;;;;;18.42;38.99;101233.13;5002893;28;20478;-80
2022/04/27 07:06:34;;;;;;;8.33;7.53;;;;;;;15.74;43.07;101230.97;4999048;28;20488;-80
2022/04/27 07:09:01;;;;;;;13.80;7.27;;;;;;;16.99;41.72;101236.59;4984080;28;20476;-80
2022/04/27 07:11:28;;;;;;;9.90;6.80;;;;;;;16.61;41.92;101228.69;4981886;28;20468;-81
2022/04/27 07:13:55;;;;;;;12.43;7.43;;;;;;;15.79;43.58;101244.88;4983708;28;20452;-80
2022/04/27 07:16:22;;;;;;;12.67;7.70;;;;;;;16.71;42.83;101239.41;4983396;28;20547;-81
2022/04/27 07:18:50;;;;;;;9.33;7.07;;;;;;;16.22;43.12;101249.75;4998648;28;20447;-81
2022/04/27 07:21:16;;;;;;;8.60;6.47;;;;;;;17.69;39.42;101241.88;4998353;28;20471;-81
2022/04/27 07:23:43;;;;;;;10.67;6.90;;;;;;;19.67;36.84;101245.47;5003129;28;20970;-80
2022/04/27 07:26:10;;;;;;;11.70;7.53;;;;;;;20.40;34.84;101251.56;5000271;28;20541;-82
2022/04/27 07:28:38;;;;;;;10.43;6.93;;;;;;;17.92;38.67;101252.97;5002478;28;20929;-82
2022/04/27 07:31:05;;;;;;;9.30;6.70;;;;;;;18.70;38.18;101251.75;5002237;28;20547;-81
2022/04/27 07:33:32;;;;;;;9.20;7.37;;;;;;;19.17;37.67;101252.91;5001848;28;20834;-82
2022/04/27 07:36:00;;;;;;;10.80;6.23;;;;;;;19.96;35.66;101261.13;5001476;28;20510;-81
2022/04/27 07:38:28;;;;;;;9.47;6.60;;;;;;;21.26;33.10;101260.31;4984215;28;20896;-81
2022/04/27 07:40:54;;;;;;;9.17;6.13;;;;;;;20.86;32.74;101263.25;4981476;28;20556;-81
2022/04/27 07:43:21;;;;;;;8.67;6.20;;;;;;;20.13;33.85;101264.59;4982250;28;20456;-82
2022/04/27 07:45:48;;;;;;;10.57;6.63;;;;;;;20.91;32.89;101261.88;4982379;28;20484;-80
2022/04/27 07:48:14;;;;;;;8.83;6.30;;;;;;;18.49;36.44;101270.34;4982692;28;20456;-81
2022/04/27 07:50:41;;;;;;;7.50;6.80;;;;;;;17.56;38.98;101263.94;4982763;28;20538;-81
2022/04/27 07:53:09;;;;;;;8.37;7.17;;;;;;;18.48;37.67;101263.25;4982565;28;20893;-81
2022/04/27 07:55:36;;;;;;;9.77;6.77;;;;;;;19.34;35.71;101262.72;4981550;28;20504;-81
2022/04/27 07:58:03;;;;;;;7.93;6.33;;;;;;;19.81;35.81;101260.19;4982380;28;20456;-80
2022/04/27 08:00:30;;;;;;;9.30;7.13;;;;;;;20.10;34.40;101264.97;4982052;28;20468;-80
2022/04/27 08:02:57;;;;;;;8.20;6.63;;;;;;;20.76;34.21;101259.09;4981545;28;21199;-80
2022/04/27 08:05:23;;;;;;;7.43;6.73;;;;;;;19.03;37.17;101268.03;4982112;28;20506;-80
2022/04/27 08:07:50;;;;;;;6.77;6.07;;;;;;;21.43;32.68;101272.69;4982245;28;20495;-80
2022/04/27 08:10:20;;;;;;;11.03;6.70;;;;;;;21.20;33.63;101267.34;4981317;28;20488;-80
2022/04/27 08:12:49;;;;;;;8.47;5.60;;;;;;;20.35;32.32;101267.53;4981586;28;20481;-80
2022/04/27 08:15:16;;;;;;;8.77;6.10;;;;;;;22.14;30.98;101265.91;4981933;28;20443;-81
2022/04/27 08:17:54;;;;;;;6.63;5.93;;;;;;;18.37;36.68;101270.69;4981506;28;20456;-80
2022/04/27 08:23:07;;;;;;;8.70;6.40;;;;;;;20.59;34.09;101264.66;4942311;29;20449;-80
2022/04/27 08:25:36;;;;;;;8.33;5.87;;;;;;;21.72;32.41;101273.78;4961730;28;20480;-81
2022/04/27 08:28:06;;;;;;;8.77;5.63;;;;;;;20.62;32.83;101285.19;4962016;29;20536;-81
2022/04/27 08:30:33;;;;;;;7.23;5.23;;;;;;;21.78;30.72;101273.00;4962578;28;20570;-81
2022/04/27 08:33:00;;;;;;;6.00;5.40;;;;;;;18.13;36.31;101276.88;4961769;28;20525;-82
2022/04/27 08:35:27;;;;;;;7.73;5.47;;;;;;;19.52;35.27;101284.19;4962179;28;20671;-80
2022/04/27 08:37:54;;;;;;;6.73;5.73;;;;;;;19.53;35.24;101285.03;4975710;28;20491;-80
2022/04/27 08:40:21;;;;;;;6.70;5.57;;;;;;;20.78;34.63;101290.50;4980573;28;20511;-81
2022/04/27 08:42:49;;;;;;;6.63;5.50;;;;;;;21.59;31.92;101285.31;4981238;28;20518;-81
2022/04/27 08:45:16;;;;;;;9.00;5.70;;;;;;;19.51;34.30;101293.34;4981078;28;20576;-81
2022/04/27 08:47:43;;;;;;;11.97;5.90;;;;;;;20.15;34.31;101295.13;4981042;28;20545;-82
2022/04/27 08:50:13;;;;;;;8.90;6.00;;;;;;;18.17;36.81;101296.34;4981812;28;20520;-81
2022/04/27 08:52:41;;;;;;;9.57;6.27;;;;;;;20.95;32.97;101299.34;4981867;28;20504;-81
2022/04/27 08:55:09;;;;;;;8.70;5.73;;;;;;;18.92;36.26;101298.16;4980802;28;20453;-80
2022/04/27 08:57:35;;;;;;;6.53;5.83;;;;;;;20.73;32.99;101305.66;4981016;28;20515;-80
2022/04/27 09:00:06;;;;;;;8.43;5.73;;;;;;;20.15;33.81;101307.88;4982053;28;20511;-79
2022/04/27 09:02:32;;;;;;;7.67;5.90;;;;;;;21.10;32.53;101307.56;4980540;28;20468;-80
2022/04/27 09:05:13;;;;;;;8.27;5.50;;;;;;;22.06;30.96;101299.53;4980377;28;20613;-82
2022/04/27 09:07:41;;;;;;;12.73;7.00;;;;;;;19.37;35.92;101304.88;4988682;28;20558;-82
2022/04/27 09:10:09;;;;;;;10.13;6.60;;;;;;;20.83;32.54;101309.84;4989543;28;20494;-82
2022/04/27 09:12:38;;;;;;;9.53;6.17;;;;;;;22.60;30.12;101313.78;4990888;28;20456;-81
2022/04/27 09:15:07;;;;;;;8.70;6.10;;;;;;;23.21;29.48;101307.84;4984101;28;20479;-80
2022/04/27 09:23:07;;;;;;;7.17;6.10;;;;;;;20.35;32.36;101317.28;4981768;28;20617;-81
2022/04/27 09:25:35;;;;;;;10.07;6.00;;;;;;;19.52;33.80;101305.88;4979824;28;21055;-81
2022/04/27 09:28:03;;;;;;;9.47;5.87;;;;;;;22.19;31.41;101307.03;4981035;28;21076;-82
2022/04/27 09:30:33;;;;;;;6.23;5.30;;;;;;;22.37;30.87;101314.81;4981320;28;20536;-82
2022/04/27 09:33:00;;;;;;;7.67;6.47;;;;;;;20.07;34.01;101314.19;4981040;28;20511;-81
2022/04/27 09:35:32;;;;;;;6.60;5.03;;;;;;;20.95;33.06;101312.09;4980495;28;20500;-81
2022/04/27 09:38:12;;;;;;;9.50;6.33;;;;;;;19.92;34.01;101309.50;4981405;28;20460;-80
2022/04/27 09:40:44;;;;;;;7.87;6.00;;;;;;;17.33;38.33;101311.50;4980483;28;21021;-81
2022/04/27 09:43:12;;;;;;;8.37;6.00;;;;;;;18.06;36.26;101309.16;4980356;28;20535;-81
2022/04/27 09:45:41;;;;;;;9.47;6.30;;;;;;;20.00;34.29;101308.63;4982573;28;20487;-81
2022/04/27 09:48:11;;;;;;;9.03;5.77;;;;;;;22.17;30.75;101306.38;5002771;28;20984;-81
2022/04/27 09:50:48;;;;;;;9.80;6.00;;;;;;;21.87;31.28;101306.41;4995088;28;20531;-82
2022/04/27 09:53:15;;;;;;;7.50;5.80;;;;;;;20.62;31.43;101301.50;4985283;28;20495;-80
2022/04/27 09:55:45;;;;;;;6.50;5.10;;;;;;;22.32;31.77;101298.19;4983741;28;21068;-80
2022/04/27 09:58:13;;;;;;;7.70;5.70;;;;;;;22.79;29.41;101310.41;4984519;28;20515;-82
2022/04/27 10:00:43;;;;;;;5.57;4.80;;;;;;;23.01;27.42;101303.03;4984459;28;20504;-80
2022/04/27 10:03:12;;;;;;;8.27;4.87;;;;;;;22.19;29.56;101305.13;4983818;28;20448;-80
2022/04/27 10:05:38;;;;;;;7.80;5.70;;;;;;;19.62;33.38;101307.56;4983616;28;21031;-78
2022/04/27 10:08:06;;;;;;;11.67;6.37;;;;;;;18.29;36.81;101303.16;4984718;28;20920;-79
2022/04/27 10:10:32;;;;;;;7.13;6.43;;;;;;;16.08;39.65;101307.78;4983361;28;20500;-79
2022/04/27 10:12:59;;;;;;;9.73;6.70;;;;;;;17.13;39.22;101306.25;4983947;28;20505;-80
2022/04/27 10:15:26;;;;;;;8.43;6.43;;;;;;;19.08;35.42;101305.44;4984137;28;20464;-80
2022/04/27 10:17:55;;;;;;;7.10;6.07;;;;;;;20.69;32.09;101302.44;4984151;28;20452;-81
2022/04/27 10:20:27;;;;;;;8.17;5.80;;;;;;;21.15;32.55;101299.69;4984324;28;20536;-80
2022/04/27 10:22:54;;;;;;;9.60;5.90;;;;;;;21.24;32.43;101305.91;4984450;28;20472;-80
2022/04/27 10:25:21;;;;;;;7.40;6.10;;;;;;;20.45;32.29;101303.44;4983313;28;20491;-80
2022/04/27 10:27:48;;;;;;;10.20;5.83;;;;;;;21.37;31.65;101297.09;4983892;28;20467;-80
2022/04/27 10:30:16;;;;;;;7.20;6.40;;;;;;;22.72;30.27;101302.19;4984115;28;20468;-78
2022/04/27 10:32:43;;;;;;;9.63;6.30;;;;;;;21.44;31.59;101298.88;4983763;28;20496;-79
2022/04/27 10:35:21;;;;;;;8.30;6.67;;;;;;;19.97;33.87;101291.84;4986707;28;20449;-79
2022/04/27 10:37:49;;;;;;;8.33;6.90;;;;;;;20.78;33.17;101295.09;4983176;28;20923;-80
2022/04/27 10:40:32;;;;;;;9.77;6.80;;;;;;;18.84;37.15;101296.31;4982688;28;20934;-79
2022/04/27 10:43:12;;;;;;;7.20;6.50;;;;;;;20.65;33.49;101296.53;4980858;28;20479;-82
2022/04/27 10:45:40;;;;;;;9.73;7.67;;;;;;;17.82;37.60;101295.50;4981241;28;21691;-79
2022/04/27 10:48:08;;;;;;;13.90;8.70;;;;;;;16.33;41.58;101301.63;4980400;28;20736;-77
2022/04/27 10:50:37;;;;;;;9.77;7.10;;;;;;;18.33;37.33;101292.81;4983203;28;20484;-80
2022/04/27 10:53:22;;;;;;;8.77;7.13;;;;;;;19.18;38.14;101292.56;4983375;28;20516;-80
2022/04/27 10:55:53;;;;;;;9.27;7.20;;;;;;;21.31;32.38;101286.97;4979877;28;20468;-79
2022/04/27 10:58:26;;;;;;;7.30;6.10;;;;;;;21.08;32.93;101279.72;4982581;28;20456;-80
2022/04/27 11:01:30;;;;;;;8.40;7.40;;;;;;;17.82;38.96;101285.53;4982347;28;20535;-79
2022/04/27 11:04:11;;;;;;;8.27;7.43;;;;;;;19.35;35.58;101282.53;4982822;28;20444;-79
2022/04/27 11:07:14;;;;;;;11.00;7.00;;;;;;;17.89;37.96;101277.66;4982209;28;20555;-82
2022/04/27 11:10:14;;;;;;;9.47;7.30;;;;;;;20.39;34.45;101296.03;4983022;28;20499;-80
2022/04/27 11:12:42;;;;;;;9.90;7.43;;;;;;;20.88;32.52;101282.97;4963363;29;20994;-81
2022/04/27 11:15:10;;;;;;;9.80;8.20;;;;;;;18.21;36.53;101292.28;4962538;28;20457;-82
2022/04/27 11:17:37;;;;;;;8.00;7.20;;;;;;;18.06;37.29;101289.38;4978578;28;21001;-80
2022/04/27 11:20:05;;;;;;;12.43;7.10;;;;;;;19.57;34.46;101283.66;4983324;28;20465;-81
2022/04/27 11:22:40;;;;;;;7.50;6.73;;;;;;;18.75;37.47;101287.31;4981789;28;20483;-81
2022/04/27 11:25:08;;;;;;;7.80;6.60;;;;;;;19.26;36.73;101291.72;4981567;28;20508;-78
2022/04/27 11:27:37;;;;;;;8.50;6.90;;;;;;;18.77;38.32;101287.16;4981460;28;20552;-80
2022/04/27 11:30:05;;;;;;;9.50;6.73;;;;;;;18.87;36.44;101286.97;4981844;28;20789;-80
2022/04/27 11:32:32;;;;;;;8.90;7.73;;;;;;;18.12;37.13;101291.41;4982163;28;20472;-80
2022/04/27 11:34:59;;;;;;;9.47;7.23;;;;;;;18.87;37.03;101293.28;4989312;28;20477;-81
2022/04/27 11:37:25;;;;;;;8.30;7.40;;;;;;;18.93;36.17;101287.16;4999833;28;20483;-81
2022/04/27 11:39:53;;;;;;;7.70;7.00;;;;;;;19.48;35.58;101285.56;5001977;28;20475;-84
2022/04/27 11:42:19;;;;;;;8.37;7.53;;;;;;;20.37;35.14;101282.63;5000623;28;20483;-83
2022/04/27 11:44:53;;;;;;;13.70;6.93;;;;;;;20.72;35.31;101287.69;5000606;28;20482;-87